sensor_id;sensor_type;location;lat;lon;timestamp;pressure;altitude;pressure_sealevel;temperature;humidity
44297;BME280;51842;47.450;8.654;2023-10-31T00:00:45;94200.09;;;8.96;100.00
44297;BME280;51842;47.450;8.654;2023-10-31T00:03:11;94193.38;;;8.99;100.00
44297;BME280;51842;47.450;8.654;2023-10-31T00:05:37;94198.41;;;9.00;100.00
44297;BME280;51842;47.450;8.654;2023-10-31T00:08:03;94202.66;;;9.01;100.00
44297;BME280;51842;47.450;8.654;2023-10-31T00:10:29;94200.78;;;9.02;100.00
44297;BME280;51842;47.450;8.654;2023-10-31T00:12:55;94191.75;;;9.03;100.00
44297;BME280;51842;47.450;8.654;2023-10-31T00:15:20;94200.00;;;9.01;100.00
44297;BME280;51842;47.450;8.654;2023-10-31T00:17:46;94205.31;;;9.01;100.00
44297;BME280;51842;47.450;8.654;2023-10-31T00:20:12;94202.16;;;8.99;100.00
44297;BME280;51842;47.450;8.654;2023-10-31T00:22:38;94207.22;;;8.96;100.00
44297;BME280;51842;47.450;8.654;2023-10-31T00:25:04;94204.31;;;8.97;100.00
44297;BME280;51842;47.450;8.654;2023-10-31T00:27:30;94211.19;;;8.98;100.00
44297;BME280;51842;47.450;8.654;2023-10-31T00:29:56;94207.75;;;8.98;100.00
44297;BME280;51842;47.450;8.654;2023-10-31T00:32:21;94208.63;;;8.93;100.00
44297;BME280;51842;47.450;8.654;2023-10-31T00:34:47;94211.53;;;8.92;100.00
44297;BME280;51842;47.450;8.654;2023-10-31T00:37:13;94215.28;;;8.91;100.00
44297;BME280;51842;47.450;8.654;2023-10-31T00:39:39;94212.63;;;8.91;100.00
44297;BME280;51842;47.450;8.654;2023-10-31T00:42:05;94203.88;;;8.90;100.00
44297;BME280;51842;47.450;8.654;2023-10-31T00:44:31;94208.69;;;8.88;100.00
44297;BME280;51842;47.450;8.654;2023-10-31T00:46:57;94218.78;;;8.86;100.00
44297;BME280;51842;47.450;8.654;2023-10-31T00:49:22;94219.56;;;8.87;100.00
44297;BME280;51842;47.450;8.654;2023-10-31T00:51:48;94227.53;;;8.87;100.00
44297;BME280;51842;47.450;8.654;2023-10-31T00:54:14;94240.59;;;8.83;100.00
44297;BME280;51842;47.450;8.654;2023-10-31T00:56:40;94241.38;;;8.84;100.00
44297;BME280;51842;47.450;8.654;2023-10-31T00:59:05;94257.31;;;8.84;100.00
44297;BME280;51842;47.450;8.654;2023-10-31T01:01:31;94262.63;;;8.84;100.00
44297;BME280;51842;47.450;8.654;2023-10-31T01:03:57;94276.22;;;8.82;100.00
44297;BME280;51842;47.450;8.654;2023-10-31T01:06:23;94292.13;;;8.82;100.00
44297;BME280;51842;47.450;8.654;2023-10-31T01:08:49;94299.88;;;8.78;100.00
44297;BME280;51842;47.450;8.654;2023-10-31T01:11:14;94303.63;;;8.77;100.00
44297;BME280;51842;47.450;8.654;2023-10-31T01:13:40;94312.38;;;8.78;100.00
44297;BME280;51842;47.450;8.654;2023-10-31T01:16:06;94307.06;;;8.78;100.00
44297;BME280;51842;47.450;8.654;2023-10-31T01:18:32;94303.09;;;8.75;100.00
44297;BME280;51842;47.450;8.654;2023-10-31T01:20:58;94295.88;;;8.81;100.00
44297;BME280;51842;47.450;8.654;2023-10-31T01:23:24;94291.06;;;8.83;100.00
44297;BME280;51842;47.450;8.654;2023-10-31T01:25:49;94297.97;;;8.84;100.00
44297;BME280;51842;47.450;8.654;2023-10-31T01:28:15;94301.69;;;8.83;100.00
44297;BME280;51842;47.450;8.654;2023-10-31T01:30:41;94299.31;;;8.82;100.00
44297;BME280;51842;47.450;8.654;2023-10-31T01:33:07;94302.75;;;8.82;100.00
44297;BME280;51842;47.450;8.654;2023-10-31T01:35:32;94301.47;;;8.79;100.00
44297;BME280;51842;47.450;8.654;2023-10-31T01:37:58;94298.00;;;8.79;100.00
44297;BME280;51842;47.450;8.654;2023-10-31T01:40:24;94295.34;;;8.79;100.00
44297;BME280;51842;47.450;8.654;2023-10-31T01:42:50;94298.00;;;8.79;100.00
44297;BME280;51842;47.450;8.654;2023-10-31T01:45:16;94289.84;;;8.75;100.00
44297;BME280;51842;47.450;8.654;2023-10-31T01:47:45;94285.88;;;8.73;100.00
44297;BME280;51842;47.450;8.654;2023-10-31T01:50:13;94291.41;;;8.76;100.00
44297;BME280;51842;47.450;8.654;2023-10-31T01:52:39;94286.59;;;8.78;100.00
44297;BME280;51842;47.450;8.654;2023-10-31T01:55:05;94288.47;;;8.78;100.00
44297;BME280;51842;47.450;8.654;2023-10-31T01:57:35;94293.28;;;8.76;100.00
44297;BME280;51842;47.450;8.654;2023-10-31T02:00:01;94301.28;;;8.71;100.00
44297;BME280;51842;47.450;8.654;2023-10-31T02:02:33;94298.41;;;8.67;100.00
44297;BME280;51842;47.450;8.654;2023-10-31T02:05:00;94303.50;;;8.64;100.00
44297;BME280;51842;47.450;8.654;2023-10-31T02:07:26;94307.81;;;8.60;100.00
44297;BME280;51842;47.450;8.654;2023-10-31T02:09:52;94304.13;;;8.55;100.00
44297;BME280;51842;47.450;8.654;2023-10-31T02:12:37;94313.69;;;8.56;100.00
44297;BME280;51842;47.450;8.654;2023-10-31T02:15:05;94314.16;;;8.58;100.00
44297;BME280;51842;47.450;8.654;2023-10-31T02:17:31;94316.81;;;8.58;100.00
44297;BME280;51842;47.450;8.654;2023-10-31T02:19:57;94318.19;;;8.56;100.00
44297;BME280;51842;47.450;8.654;2023-10-31T02:22:23;94313.69;;;8.56;100.00
44297;BME280;51842;47.450;8.654;2023-10-31T02:24:49;94324.28;;;8.56;100.00
44297;BME280;51842;47.450;8.654;2023-10-31T02:27:15;94335.69;;;8.57;100.00
44297;BME280;51842;47.450;8.654;2023-10-31T02:29:40;94336.47;;;8.57;100.00
44297;BME280;51842;47.450;8.654;2023-10-31T02:32:06;94343.09;;;8.60;100.00
44297;BME280;51842;47.450;8.654;2023-10-31T02:34:32;94345.44;;;8.62;100.00
44297;BME280;51842;47.450;8.654;2023-10-31T02:36:59;94337.78;;;8.60;100.00
44297;BME280;51842;47.450;8.654;2023-10-31T02:39:25;94340.47;;;8.55;100.00
44297;BME280;51842;47.450;8.654;2023-10-31T02:41:51;94345.53;;;8.56;100.00
44297;BME280;51842;47.450;8.654;2023-10-31T02:44:17;94352.97;;;8.54;100.00
44297;BME280;51842;47.450;8.654;2023-10-31T02:46:42;94347.94;;;8.53;100.00
44297;BME280;51842;47.450;8.654;2023-10-31T02:49:09;94358.28;;;8.54;100.00
44297;BME280;51842;47.450;8.654;2023-10-31T02:51:35;94353.75;;;8.55;100.00
44297;BME280;51842;47.450;8.654;2023-10-31T02:54:01;94362.81;;;8.54;100.00
44297;BME280;51842;47.450;8.654;2023-10-31T02:56:27;94354.31;;;8.52;100.00
44297;BME280;51842;47.450;8.654;2023-10-31T02:58:53;94356.19;;;8.51;100.00
44297;BME280;51842;47.450;8.654;2023-10-31T03:01:18;94353.03;;;8.49;100.00
44297;BME280;51842;47.450;8.654;2023-10-31T03:03:45;94348.00;;;8.48;100.00
44297;BME280;51842;47.450;8.654;2023-10-31T03:06:11;94358.09;;;8.46;100.00
44297;BME280;51842;47.450;8.654;2023-10-31T03:08:37;94354.09;;;8.48;100.00
44297;BME280;51842;47.450;8.654;2023-10-31T03:11:03;94358.59;;;8.48;100.00
44297;BME280;51842;47.450;8.654;2023-10-31T03:13:28;94356.81;;;8.43;100.00
44297;BME280;51842;47.450;8.654;2023-10-31T03:15:54;94367.34;;;8.48;100.00
44297;BME280;51842;47.450;8.654;2023-10-31T03:18:20;94369.00;;;8.44;100.00
44297;BME280;51842;47.450;8.654;2023-10-31T03:20:46;94369.22;;;8.48;100.00
44297;BME280;51842;47.450;8.654;2023-10-31T03:23:13;94371.66;;;8.44;100.00
44297;BME280;51842;47.450;8.654;2023-10-31T03:25:39;94377.47;;;8.46;100.00
44297;BME280;51842;47.450;8.654;2023-10-31T03:28:18;94376.09;;;8.49;100.00
44297;BME280;51842;47.450;8.654;2023-10-31T03:30:48;94384.88;;;8.49;100.00
44297;BME280;51842;47.450;8.654;2023-10-31T03:33:15;94396.31;;;8.45;100.00
44297;BME280;51842;47.450;8.654;2023-10-31T03:35:45;94400.00;;;8.49;100.00
44297;BME280;51842;47.450;8.654;2023-10-31T03:38:11;94398.16;;;8.49;100.00
44297;BME280;51842;47.450;8.654;2023-10-31T03:40:36;94400.28;;;8.47;100.00
44297;BME280;51842;47.450;8.654;2023-10-31T03:43:02;94413.25;;;8.49;100.00
44297;BME280;51842;47.450;8.654;2023-10-31T03:45:29;94404.75;;;8.52;100.00
44297;BME280;51842;47.450;8.654;2023-10-31T03:47:55;94410.13;;;8.47;100.00
44297;BME280;51842;47.450;8.654;2023-10-31T03:50:21;94430.81;;;8.45;100.00
44297;BME280;51842;47.450;8.654;2023-10-31T03:52:47;94432.75;;;8.34;100.00
44297;BME280;51842;47.450;8.654;2023-10-31T03:55:13;94429.91;;;8.25;100.00
44297;BME280;51842;47.450;8.654;2023-10-31T03:57:39;94425.69;;;8.19;100.00
44297;BME280;51842;47.450;8.654;2023-10-31T04:00:06;94436.00;;;8.21;100.00
44297;BME280;51842;47.450;8.654;2023-10-31T04:02:34;94432.34;;;8.17;100.00
44297;BME280;51842;47.450;8.654;2023-10-31T04:05:00;94438.72;;;8.16;100.00
44297;BME280;51842;47.450;8.654;2023-10-31T04:07:27;94425.22;;;8.12;100.00
44297;BME280;51842;47.450;8.654;2023-10-31T04:09:52;94428.94;;;8.11;100.00
44297;BME280;51842;47.450;8.654;2023-10-31T04:12:18;94428.44;;;8.09;100.00
44297;BME280;51842;47.450;8.654;2023-10-31T04:14:44;94430.31;;;8.03;100.00
44297;BME280;51842;47.450;8.654;2023-10-31T04:17:10;94436.97;;;8.01;100.00
44297;BME280;51842;47.450;8.654;2023-10-31T04:19:37;94429.88;;;7.91;100.00
44297;BME280;51842;47.450;8.654;2023-10-31T04:22:03;94445.78;;;7.91;100.00
44297;BME280;51842;47.450;8.654;2023-10-31T04:24:29;94447.91;;;7.89;100.00
44297;BME280;51842;47.450;8.654;2023-10-31T04:26:54;94447.66;;;7.85;100.00
44297;BME280;51842;47.450;8.654;2023-10-31T04:29:20;94453.81;;;7.81;100.00
44297;BME280;51842;47.450;8.654;2023-10-31T04:31:46;94451.16;;;7.76;100.00
44297;BME280;51842;47.450;8.654;2023-10-31T04:34:12;94450.94;;;7.72;100.00
44297;BME280;51842;47.450;8.654;2023-10-31T04:36:39;94447.25;;;7.68;100.00
44297;BME280;51842;47.450;8.654;2023-10-31T04:39:05;94449.63;;;7.70;100.00
44297;BME280;51842;47.450;8.654;2023-10-31T04:41:31;94449.09;;;7.68;100.00
44297;BME280;51842;47.450;8.654;2023-10-31T04:43:57;94449.63;;;7.70;100.00
44297;BME280;51842;47.450;8.654;2023-10-31T04:46:25;94453.34;;;7.69;100.00
44297;BME280;51842;47.450;8.654;2023-10-31T04:48:52;94447.50;;;7.67;100.00
44297;BME280;51842;47.450;8.654;2023-10-31T04:51:19;94443.53;;;7.69;100.00
44297;BME280;51842;47.450;8.654;2023-10-31T04:53:45;94444.06;;;7.66;100.00
44297;BME280;51842;47.450;8.654;2023-10-31T04:56:15;94445.94;;;7.65;100.00
44297;BME280;51842;47.450;8.654;2023-10-31T04:58:44;94453.34;;;7.63;100.00
44297;BME280;51842;47.450;8.654;2023-10-31T05:01:13;94446.47;;;7.62;100.00
44297;BME280;51842;47.450;8.654;2023-10-31T05:03:39;94442.81;;;7.58;100.00
44297;BME280;51842;47.450;8.654;2023-10-31T05:06:06;94435.91;;;7.57;100.00
44297;BME280;51842;47.450;8.654;2023-10-31T05:08:32;94444.63;;;7.58;100.00
44297;BME280;51842;47.450;8.654;2023-10-31T05:10:59;94442.81;;;7.53;100.00
44297;BME280;51842;47.450;8.654;2023-10-31T05:13:25;94443.34;;;7.55;100.00
44297;BME280;51842;47.450;8.654;2023-10-31T05:15:51;94444.13;;;7.56;100.00
44297;BME280;51842;47.450;8.654;2023-10-31T05:18:17;94440.41;;;7.57;100.00
44297;BME280;51842;47.450;8.654;2023-10-31T05:20:43;94441.72;;;7.59;100.00
44297;BME280;51842;47.450;8.654;2023-10-31T05:23:09;94439.56;;;7.61;100.00
44297;BME280;51842;47.450;8.654;2023-10-31T05:25:36;94432.94;;;7.64;100.00
44297;BME280;51842;47.450;8.654;2023-10-31T05:28:02;94438.47;;;7.68;100.00
44297;BME280;51842;47.450;8.654;2023-10-31T05:30:28;94445.88;;;7.71;100.00
44297;BME280;51842;47.450;8.654;2023-10-31T05:32:53;94446.16;;;7.74;100.00
44297;BME280;51842;47.450;8.654;2023-10-31T05:35:19;94454.09;;;7.74;100.00
44297;BME280;51842;47.450;8.654;2023-10-31T05:37:46;94455.94;;;7.79;100.00
44297;BME280;51842;47.450;8.654;2023-10-31T05:40:14;94459.66;;;7.78;100.00
44297;BME280;51842;47.450;8.654;2023-10-31T05:42:41;94461.22;;;7.79;100.00
44297;BME280;51842;47.450;8.654;2023-10-31T05:45:07;94454.06;;;7.79;100.00
44297;BME280;51842;47.450;8.654;2023-10-31T05:47:32;94459.09;;;7.81;100.00
44297;BME280;51842;47.450;8.654;2023-10-31T05:49:58;94460.97;;;7.80;100.00
44297;BME280;51842;47.450;8.654;2023-10-31T05:52:28;94458.28;;;7.85;100.00
44297;BME280;51842;47.450;8.654;2023-10-31T05:54:55;94459.06;;;7.86;100.00
44297;BME280;51842;47.450;8.654;2023-10-31T05:57:21;94457.19;;;7.86;100.00
44297;BME280;51842;47.450;8.654;2023-10-31T05:59:47;94467.53;;;7.88;100.00
44297;BME280;51842;47.450;8.654;2023-10-31T06:02:14;94464.38;;;7.86;100.00
44297;BME280;51842;47.450;8.654;2023-10-31T06:04:40;94475.50;;;7.83;100.00
44297;BME280;51842;47.450;8.654;2023-10-31T06:07:06;94476.03;;;7.85;100.00
44297;BME280;51842;47.450;8.654;2023-10-31T06:09:33;94479.78;;;7.84;100.00
44297;BME280;51842;47.450;8.654;2023-10-31T06:12:00;94485.31;;;7.87;100.00
44297;BME280;51842;47.450;8.654;2023-10-31T06:14:26;94483.72;;;7.86;100.00
44297;BME280;51842;47.450;8.654;2023-10-31T06:16:53;94485.03;;;7.89;100.00
44297;BME280;51842;47.450;8.654;2023-10-31T06:19:19;94494.06;;;7.88;100.00
44297;BME280;51842;47.450;8.654;2023-10-31T06:21:45;94492.19;;;7.88;100.00
44297;BME280;51842;47.450;8.654;2023-10-31T06:24:11;94489.28;;;7.90;100.00
44297;BME280;51842;47.450;8.654;2023-10-31T06:26:36;94493.75;;;7.95;100.00
44297;BME280;51842;47.450;8.654;2023-10-31T06:29:02;94498.25;;;7.99;100.00
44297;BME280;51842;47.450;8.654;2023-10-31T06:31:29;94495.59;;;7.99;100.00
44297;BME280;51842;47.450;8.654;2023-10-31T06:33:55;94507.50;;;8.02;100.00
44297;BME280;51842;47.450;8.654;2023-10-31T06:36:20;94507.22;;;8.03;100.00
44297;BME280;51842;47.450;8.654;2023-10-31T06:38:46;94509.88;;;8.03;100.00
44297;BME280;51842;47.450;8.654;2023-10-31T06:41:12;94513.84;;;8.06;100.00
44297;BME280;51842;47.450;8.654;2023-10-31T06:43:38;94515.44;;;8.07;100.00
44297;BME280;51842;47.450;8.654;2023-10-31T06:46:04;94518.88;;;8.07;100.00
44297;BME280;51842;47.450;8.654;2023-10-31T06:48:30;94531.31;;;8.12;100.00
44297;BME280;51842;47.450;8.654;2023-10-31T06:50:56;94534.25;;;8.10;100.00
44297;BME280;51842;47.450;8.654;2023-10-31T06:53:22;94536.34;;;8.14;100.00
44297;BME280;51842;47.450;8.654;2023-10-31T06:55:48;94542.72;;;8.13;100.00
44297;BME280;51842;47.450;8.654;2023-10-31T06:58:14;94544.59;;;8.12;100.00
44297;BME280;51842;47.450;8.654;2023-10-31T07:00:40;94536.34;;;8.14;100.00
44297;BME280;51842;47.450;8.654;2023-10-31T07:03:06;94544.59;;;8.12;100.00
44297;BME280;51842;47.450;8.654;2023-10-31T07:05:37;94541.88;;;8.17;100.00
44297;BME280;51842;47.450;8.654;2023-10-31T07:08:04;94554.59;;;8.20;100.00
44297;BME280;51842;47.450;8.654;2023-10-31T07:10:30;94559.13;;;8.20;100.00
44297;BME280;51842;47.450;8.654;2023-10-31T07:12:57;94566.00;;;8.21;100.00
44297;BME280;51842;47.450;8.654;2023-10-31T07:15:25;94564.97;;;8.22;100.00
44297;BME280;51842;47.450;8.654;2023-10-31T07:17:51;94568.09;;;8.24;100.00
44297;BME280;51842;47.450;8.654;2023-10-31T07:20:16;94567.84;;;8.25;100.00
44297;BME280;51842;47.450;8.654;2023-10-31T07:22:43;94568.34;;;8.32;100.00
44297;BME280;51842;47.450;8.654;2023-10-31T07:25:09;94565.97;;;8.31;100.00
44297;BME280;51842;47.450;8.654;2023-10-31T07:27:35;94567.84;;;8.30;100.00
44297;BME280;51842;47.450;8.654;2023-10-31T07:30:03;94576.03;;;8.34;100.00
44297;BME280;51842;47.450;8.654;2023-10-31T07:32:31;94576.81;;;8.34;100.00
44297;BME280;51842;47.450;8.654;2023-10-31T07:34:58;94569.66;;;8.35;100.00
44297;BME280;51842;47.450;8.654;2023-10-31T07:37:24;94572.31;;;8.35;100.00
44297;BME280;51842;47.450;8.654;2023-10-31T07:39:49;94571.22;;;8.36;100.00
44297;BME280;51842;47.450;8.654;2023-10-31T07:42:16;94577.31;;;8.37;100.00
44297;BME280;51842;47.450;8.654;2023-10-31T07:44:42;94576.53;;;8.36;100.00
44297;BME280;51842;47.450;8.654;2023-10-31T07:47:08;94586.09;;;8.42;100.00
44297;BME280;51842;47.450;8.654;2023-10-31T07:49:34;94578.91;;;8.43;100.00
44297;BME280;51842;47.450;8.654;2023-10-31T07:52:00;94591.38;;;8.47;100.00
44297;BME280;51842;47.450;8.654;2023-10-31T07:54:26;94584.44;;;8.51;100.00
44297;BME280;51842;47.450;8.654;2023-10-31T07:56:52;94581.75;;;8.56;100.00
44297;BME280;51842;47.450;8.654;2023-10-31T07:59:19;94582.00;;;8.60;100.00
44297;BME280;51842;47.450;8.654;2023-10-31T08:01:44;94581.47;;;8.58;100.00
44297;BME280;51842;47.450;8.654;2023-10-31T08:04:10;94592.63;;;8.60;100.00
44297;BME280;51842;47.450;8.654;2023-10-31T08:06:36;94586.78;;;8.58;100.00
44297;BME280;51842;47.450;8.654;2023-10-31T08:09:02;94590.50;;;8.62;100.00
44297;BME280;51842;47.450;8.654;2023-10-31T08:11:28;94597.72;;;8.51;100.00
44297;BME280;51842;47.450;8.654;2023-10-31T08:13:54;94600.34;;;8.56;100.00
44297;BME280;51842;47.450;8.654;2023-10-31T08:16:19;94597.38;;;8.63;100.00
44297;BME280;51842;47.450;8.654;2023-10-31T08:18:46;94605.59;;;8.62;100.00
44297;BME280;51842;47.450;8.654;2023-10-31T08:21:12;94602.94;;;8.62;100.00
44297;BME280;51842;47.450;8.654;2023-10-31T08:23:38;94601.59;;;8.69;100.00
44297;BME280;51842;47.450;8.654;2023-10-31T08:26:04;94607.13;;;8.73;100.00
44297;BME280;51842;47.450;8.654;2023-10-31T08:28:30;94602.59;;;8.73;100.00
44297;BME280;51842;47.450;8.654;2023-10-31T08:30:57;94604.72;;;8.76;100.00
44297;BME280;51842;47.450;8.654;2023-10-31T08:33:23;94606.34;;;8.72;100.00
44297;BME280;51842;47.450;8.654;2023-10-31T08:35:49;94608.69;;;8.79;100.00
44297;BME280;51842;47.450;8.654;2023-10-31T08:38:17;94604.94;;;8.80;100.00
44297;BME280;51842;47.450;8.654;2023-10-31T08:40:43;94617.66;;;8.83;100.00
44297;BME280;51842;47.450;8.654;2023-10-31T08:43:10;94611.31;;;8.84;100.00
44297;BME280;51842;47.450;8.654;2023-10-31T08:45:36;94613.41;;;8.87;100.00
44297;BME280;51842;47.450;8.654;2023-10-31T08:48:01;94618.44;;;8.89;100.00
44297;BME280;51842;47.450;8.654;2023-10-31T08:50:27;94628.25;;;8.93;100.00
44297;BME280;51842;47.450;8.654;2023-10-31T08:52:53;94620.50;;;8.97;100.00
44297;BME280;51842;47.450;8.654;2023-10-31T08:55:19;94624.50;;;8.94;100.00
44297;BME280;51842;47.450;8.654;2023-10-31T08:57:46;94623.19;;;8.92;100.00
44297;BME280;51842;47.450;8.654;2023-10-31T09:00:12;94627.13;;;8.99;100.00
44297;BME280;51842;47.450;8.654;2023-10-31T09:02:39;94630.75;;;9.09;100.00
44297;BME280;51842;47.450;8.654;2023-10-31T09:05:05;94636.03;;;9.14;100.00
44297;BME280;51842;47.450;8.654;2023-10-31T09:07:31;94631.19;;;9.21;100.00
44297;BME280;51842;47.450;8.654;2023-10-31T09:09:58;94635.91;;;9.29;100.00
44297;BME280;51842;47.450;8.654;2023-10-31T09:12:23;94626.59;;;9.32;100.00
44297;BME280;51842;47.450;8.654;2023-10-31T09:14:49;94627.59;;;9.41;100.00
44297;BME280;51842;47.450;8.654;2023-10-31T09:17:15;94616.41;;;9.44;100.00
44297;BME280;51842;47.450;8.654;2023-10-31T09:19:41;94628.59;;;9.45;100.00
44297;BME280;51842;47.450;8.654;2023-10-31T09:22:06;94625.84;;;9.55;100.00
44297;BME280;51842;47.450;8.654;2023-10-31T09:24:33;94620.81;;;9.54;100.00
44297;BME280;51842;47.450;8.654;2023-10-31T09:26:59;94621.00;;;9.62;100.00
44297;BME280;51842;47.450;8.654;2023-10-31T09:29:25;94628.81;;;9.78;100.00
44297;BME280;51842;47.450;8.654;2023-10-31T09:31:51;94631.75;;;9.76;100.00
44297;BME280;51842;47.450;8.654;2023-10-31T09:34:16;94622.88;;;9.86;100.00
44297;BME280;51842;47.450;8.654;2023-10-31T09:36:43;94616.47;;;9.87;100.00
44297;BME280;51842;47.450;8.654;2023-10-31T09:39:09;94616.03;;;10.04;100.00
44297;BME280;51842;47.450;8.654;2023-10-31T09:41:35;94614.69;;;10.06;100.00
44297;BME280;51842;47.450;8.654;2023-10-31T09:44:02;94625.19;;;10.16;100.00
44297;BME280;51842;47.450;8.654;2023-10-31T09:46:29;94620.59;;;10.22;100.00
44297;BME280;51842;47.450;8.654;2023-10-31T09:48:56;94618.94;;;10.31;100.00
44297;BME280;51842;47.450;8.654;2023-10-31T09:51:22;94620.00;;;10.49;100.00
44297;BME280;51842;47.450;8.654;2023-10-31T09:53:48;94621.59;;;10.50;97.17
44297;BME280;51842;47.450;8.654;2023-10-31T09:56:15;94630.19;;;10.66;100.00
44297;BME280;51842;47.450;8.654;2023-10-31T09:58:42;94625.44;;;10.63;97.41
44297;BME280;51842;47.450;8.654;2023-10-31T10:01:08;94627.00;;;10.64;97.78
44297;BME280;51842;47.450;8.654;2023-10-31T10:03:36;94624.63;;;10.81;97.57
44297;BME280;51842;47.450;8.654;2023-10-31T10:06:03;94625.69;;;10.99;97.57
44297;BME280;51842;47.450;8.654;2023-10-31T10:08:45;94622.44;;;11.02;95.54
44297;BME280;51842;47.450;8.654;2023-10-31T10:11:11;94622.38;;;11.07;95.30
44297;BME280;51842;47.450;8.654;2023-10-31T10:13:37;94607.00;;;11.18;94.38
44297;BME280;51842;47.450;8.654;2023-10-31T10:16:03;94620.50;;;11.41;95.61
44297;BME280;51842;47.450;8.654;2023-10-31T10:18:31;94613.50;;;11.45;91.75
44297;BME280;51842;47.450;8.654;2023-10-31T10:21:05;94614.81;;;11.61;90.83
44297;BME280;51842;47.450;8.654;2023-10-31T10:23:33;94616.56;;;11.52;89.61
44297;BME280;51842;47.450;8.654;2023-10-31T10:26:01;94623.41;;;11.72;90.56
44297;BME280;51842;47.450;8.654;2023-10-31T10:28:27;94619.47;;;11.83;87.84
44297;BME280;51842;47.450;8.654;2023-10-31T10:30:55;94621.16;;;11.79;89.28
44297;BME280;51842;47.450;8.654;2023-10-31T10:33:22;94622.19;;;11.97;88.82
44297;BME280;51842;47.450;8.654;2023-10-31T10:35:48;94624.25;;;12.00;87.34
44297;BME280;51842;47.450;8.654;2023-10-31T10:38:17;94622.78;;;11.94;85.31
44297;BME280;51842;47.450;8.654;2023-10-31T10:40:46;94627.44;;;12.02;87.45
44297;BME280;51842;47.450;8.654;2023-10-31T10:43:25;94624.09;;;12.10;85.25
44297;BME280;51842;47.450;8.654;2023-10-31T10:45:57;94629.72;;;12.22;87.29
44297;BME280;51842;47.450;8.654;2023-10-31T10:48:26;94622.50;;;12.23;86.23
44297;BME280;51842;47.450;8.654;2023-10-31T10:51:18;94625.84;;;12.29;83.05
44297;BME280;51842;47.450;8.654;2023-10-31T10:53:57;94621.13;;;12.25;84.00
44297;BME280;51842;47.450;8.654;2023-10-31T10:56:42;94619.97;;;12.54;83.59
44297;BME280;51842;47.450;8.654;2023-10-31T10:59:21;94617.38;;;12.63;82.54
44297;BME280;51842;47.450;8.654;2023-10-31T11:01:53;94624.94;;;12.83;81.68
44297;BME280;51842;47.450;8.654;2023-10-31T11:04:20;94618.59;;;13.15;81.03
44297;BME280;51842;47.450;8.654;2023-10-31T11:06:47;94622.78;;;13.08;78.04
44297;BME280;51842;47.450;8.654;2023-10-31T11:09:14;94624.81;;;13.25;77.99
44297;BME280;51842;47.450;8.654;2023-10-31T11:11:41;94619.03;;;13.09;77.14
44297;BME280;51842;47.450;8.654;2023-10-31T11:14:08;94631.16;;;12.92;76.65
44297;BME280;51842;47.450;8.654;2023-10-31T11:16:43;94627.72;;;13.14;76.96
44297;BME280;51842;47.450;8.654;2023-10-31T11:19:11;94620.84;;;13.00;76.16
44297;BME280;51842;47.450;8.654;2023-10-31T11:22:05;94630.63;;;12.82;77.82
44297;BME280;51842;47.450;8.654;2023-10-31T11:24:37;94625.38;;;12.77;75.89
44297;BME280;51842;47.450;8.654;2023-10-31T11:27:06;94620.13;;;12.71;77.19
44297;BME280;51842;47.450;8.654;2023-10-31T11:29:32;94635.78;;;12.64;76.46
44297;BME280;51842;47.450;8.654;2023-10-31T11:31:59;94640.97;;;12.33;76.84
44297;BME280;51842;47.450;8.654;2023-10-31T11:34:30;94632.75;;;12.43;78.82
44297;BME280;51842;47.450;8.654;2023-10-31T11:37:24;94638.28;;;12.61;79.35
44297;BME280;51842;47.450;8.654;2023-10-31T11:42:53;94653.69;;;12.64;78.69
44297;BME280;51842;47.450;8.654;2023-10-31T11:45:43;94650.34;;;12.58;78.33
44297;BME280;51842;47.450;8.654;2023-10-31T11:48:10;94649.06;;;12.56;78.51
44297;BME280;51842;47.450;8.654;2023-10-31T11:50:38;94657.47;;;12.49;78.27
44297;BME280;51842;47.450;8.654;2023-10-31T11:53:09;94664.88;;;12.52;80.39
44297;BME280;51842;47.450;8.654;2023-10-31T11:55:44;94660.34;;;12.53;79.82
44297;BME280;51842;47.450;8.654;2023-10-31T11:58:21;94666.09;;;12.60;79.26
44297;BME280;51842;47.450;8.654;2023-10-31T12:01:00;94662.81;;;12.49;78.90
44297;BME280;51842;47.450;8.654;2023-10-31T12:03:26;94667.88;;;12.50;79.78
44297;BME280;51842;47.450;8.654;2023-10-31T12:05:58;94675.47;;;12.43;78.67
44297;BME280;51842;47.450;8.654;2023-10-31T12:13:30;94673.41;;;12.13;80.45
44297;BME280;51842;47.450;8.654;2023-10-31T12:15:56;94671.03;;;12.11;81.27
44297;BME280;51842;47.450;8.654;2023-10-31T12:18:22;94677.34;;;12.01;80.41
44297;BME280;51842;47.450;8.654;2023-10-31T12:20:52;94678.44;;;12.00;80.95
44297;BME280;51842;47.450;8.654;2023-10-31T12:23:18;94680.09;;;11.96;82.28
44297;BME280;51842;47.450;8.654;2023-10-31T12:25:51;94675.00;;;11.81;80.81
44297;BME280;51842;47.450;8.654;2023-10-31T12:28:23;94676.41;;;11.78;82.63
44297;BME280;51842;47.450;8.654;2023-10-31T12:30:54;94676.19;;;11.75;81.77
44297;BME280;51842;47.450;8.654;2023-10-31T12:33:22;94672.44;;;11.76;83.77
44297;BME280;51842;47.450;8.654;2023-10-31T12:36:00;94677.19;;;11.79;83.91
44297;BME280;51842;47.450;8.654;2023-10-31T12:38:27;94675.00;;;11.81;84.72
44297;BME280;51842;47.450;8.654;2023-10-31T12:40:55;94672.50;;;11.90;84.81
44297;BME280;51842;47.450;8.654;2023-10-31T12:43:22;94671.63;;;11.94;84.24
44297;BME280;51842;47.450;8.654;2023-10-31T12:45:48;94677.25;;;11.93;84.88
44297;BME280;51842;47.450;8.654;2023-10-31T12:48:14;94680.28;;;11.86;83.27
44297;BME280;51842;47.450;8.654;2023-10-31T12:50:40;94681.50;;;11.75;84.63
44297;BME280;51842;47.450;8.654;2023-10-31T12:53:06;94667.25;;;11.66;82.09
44297;BME280;51842;47.450;8.654;2023-10-31T12:55:40;94678.78;;;11.80;85.18
44297;BME280;51842;47.450;8.654;2023-10-31T12:58:06;94679.56;;;11.80;81.69
44297;BME280;51842;47.450;8.654;2023-10-31T13:00:36;94678.25;;;11.78;81.83
44297;BME280;51842;47.450;8.654;2023-10-31T13:03:05;94673.22;;;11.76;81.68
44297;BME280;51842;47.450;8.654;2023-10-31T13:05:32;94673.63;;;11.84;81.12
44297;BME280;51842;47.450;8.654;2023-10-31T13:07:59;94680.53;;;12.03;81.12